• Join FlightAware (Why Join?)
  • Login
  • US Flag 
10:15AM EDT


 

Airport Tracker/Info


-or-


 

Live Flight TrackerFlight Track Log ✈ GJS3649 ✈ 09-Jul-2013 ✈ KORD - KBDL

Flight Track Log - Related Links

Times and Time Zones

All times are in EDT time to prevent confusion due to time zone crossing. See the GJS3649 flight status page for this flight to view local times or setup timezone preferences in your user account.

Time Position Orientation Groundspeed Altitude Reporting Facility
EDT Latitude Longitude Course Direction KTS MPH feet Rate Location/Type
12:28PM 42.0167 -87.9333 90° East 189 217 1,900  Level Chicago TRACON
12:29PM 42.0667 -87.8833 37° Northeast 250 288 3,300 1,740 Climbing Chicago TRACON
12:31PM 42.1236 -87.8022 47° Northeast 276 318 5,900 2,100 Climbing Chicago Center
12:32PM 42.1364 -87.6931 81° East 298 343 8,200 2,580 Climbing Chicago Center
12:33PM 42.1325 -87.5556 92° East 306 352 11,200 2,100 Climbing Chicago Center
12:34PM 42.0333 -86.9311 90° East  Level FlightAware Approximate
12:34PM 42.1278 -87.4269 93° East 337 388 12,600  Level Chicago Center
12:35PM 42.1203 -87.2875 94° East 368 423 14,100 1,680 Climbing Chicago Center
12:36PM 42.1150 -87.1431 93° East 385 443 16,100 1,620 Climbing Chicago Center
12:37PM 42.1147 -86.9933 90° East 404 465 17,500 1,320 Climbing Chicago Center
12:38PM 42.1200 -86.8419 87° East 404 465 18,900 1,200 Climbing Chicago Center
12:40PM 42.1306 -86.5086 87° East 427 491 21,400 960 Climbing Chicago Center
12:41PM 42.1372 -86.3389 87° East 449 517 21,900 600 Climbing Chicago Center
12:42PM 42.1422 -86.1633 88° East 465 535 22,700 780 Climbing Chicago Center
12:43PM 42.1422 -85.9644 90° East 472 543 23,600 780 Climbing Chicago Center
12:44PM 42.1406 -85.7853 91° East 479 551 24,400 720 Climbing Chicago Center
12:45PM 42.1389 -85.6056 91° East 483 556 25,200 720 Climbing Chicago Center
12:46PM 42.1378 -85.4231 90° East 490 564 26,000 720 Climbing Chicago Center
12:47PM 42.1356 -85.2003 91° East 499 574 26,800 720 Climbing Chicago Center
12:48PM 42.1422 -85.0125 87° East 505 581 27,500 660 Climbing Chicago Center
12:49PM 42.1483 -84.8264 87° East 501 577 28,200 780 Climbing Chicago Center
12:50PM 42.1542 -84.6403 88° East 500 575 29,200 840 Climbing Chicago Center
12:52PM 42.1619 -84.2503 88° East 497 572 30,800 960 Climbing Cleveland Center
12:53PM 42.1678 -84.0656 87° East 497 572 32,200 1,200 Climbing Cleveland Center
12:54PM 42.1708 -83.8892 89° East 487 560 33,200 900 Climbing Cleveland Center
12:55PM 42.1778 -83.7131 87° East 476 548 34,000 780 Climbing Cleveland Center
12:56PM 42.1931 -83.5317 83° East 471 542 34,800 480 Climbing Cleveland Center
12:57PM 42.2100 -83.3558 83° East 483 556 35,000 60 Climbing Cleveland Center
12:58PM 42.2203 -83.1881 85° East 482 555 35,000  Level Cleveland Center
12:59PM 42.2342 -83.0203 84° East 476 548 35,000  Level Cleveland Center
01:00PM 42.2461 -82.8467 85° East 466 536 35,000  Level Cleveland Center
01:01PM 42.2597 -82.6733 84° East 460 529 35,000  Level Cleveland Center
01:02PM 42.2733 -82.4969 84° East 460 529 35,000  Level Cleveland Center
01:03PM 42.2844 -82.3206 85° East 460 529 35,000  Level Cleveland Center
01:04PM 42.2953 -82.1467 85° East 460 529 35,000  Level Cleveland Center
01:05PM 42.3122 -81.9675 83° East 465 535 35,000  Level Cleveland Center
01:06PM 42.3247 -81.7936 84° East 465 535 35,000  Level Cleveland Center
01:07PM 42.3347 -81.6197 85° East 465 535 35,000  Level Cleveland Center
01:08PM 42.3464 -81.4456 85° East 459 528 35,000  Level Cleveland Center
01:09PM 42.3581 -81.2575 85° East 459 528 35,000  Level Cleveland Center
01:10PM 42.3675 -81.0806 86° East 467 537 35,000  Level Cleveland Center
01:11PM 42.3786 -80.9036 85° East 461 531 35,000  Level Cleveland Center
01:12PM 42.3892 -80.7350 85° East 461 531 35,000  Level Cleveland Center
01:13PM 42.3997 -80.5606 85° East 461 531 35,000  Level Cleveland Center
01:14PM 42.4081 -80.3892 86° East 461 531 35,000  Level Cleveland Center
01:15PM 42.4158 -80.2119 87° East 461 531 35,000  Level Cleveland Center
01:16PM 42.4256 -80.0347 86° East 461 531 35,000  Level Cleveland Center
01:17PM 42.4350 -79.8603 86° East 461 531 35,000 180 Level Cleveland Center
01:18PM 42.4442 -79.6828 86° East 461 531 35,400 660 Climbing Cleveland Center
01:19PM 42.4511 -79.5253 87° East 469 540 36,400 780 Climbing Cleveland Center
01:20PM 42.4597 -79.3336 86° East 463 533 37,000 300 Climbing Cleveland Center
01:21PM 42.4681 -79.1533 86° East 463 533 37,000  Level Cleveland Center
01:22PM 42.4761 -78.9731 86° East 463 533 37,000  Level Cleveland Center
01:23PM 42.4819 -78.7983 87° East 468 539 37,000  Level Cleveland Center
01:24PM 42.4875 -78.6236 87° East 468 539 37,000  Level Cleveland Center
01:25PM 42.4967 -78.4458 86° East 468 539 37,000  Level Cleveland Center
01:26PM 42.5017 -78.2711 88° East 463 533 37,000  Level Cleveland Center
01:27PM 42.5064 -78.0961 88° East 463 533 37,000  Level Cleveland Center
01:28PM 42.5108 -77.9214 88° East 463 533 37,000  Level Cleveland Center
01:29PM 42.5169 -77.7436 87° East 463 533 37,000  Level Cleveland Center
01:30PM 42.5231 -77.5686 87° East 463 533 37,000 -180 Level Cleveland Center
01:31PM 42.5269 -77.4078 88° East 468 539 36,700 -660 Descending Cleveland Center
01:32PM 42.5325 -77.2300 88° East 468 539 35,700 -540 Descending Cleveland Center
01:35PM 42.5419 -76.7944 88° East 495 570 35,000 -240 Descending Boston Center
01:36PM 42.5467 -76.6172 88° East 484 557 35,000  Level Boston Center
01:37PM 42.5489 -76.4397 89° East 477 549 35,000 -300 Level Boston Center
01:38PM 42.5528 -76.2653 88° East 470 541 34,400 -840 Descending Boston Center
01:39PM 42.5558 -76.1103 88° East 465 535 33,400 -1,020 Descending Boston Center
01:40PM 42.5569 -75.9383 89° East 458 527 32,400 -960 Descending Boston Center
01:41PM 42.5414 -75.7656 97° East 458 527 31,500 -720 Descending Boston Center
01:42PM 42.5133 -75.5808 102° East 470 541 31,000 -600 Descending Boston Center
01:43PM 42.4908 -75.4081 100° East 475 547 30,300 -1,260 Descending Boston Center
01:44PM 42.4661 -75.2350 101° East 467 537 28,500 -1,920 Descending Boston Center
01:45PM 42.4681 -75.0606 89° East 462 532 26,500 -2,040 Descending Boston Center
01:46PM 42.4719 -74.8919 88° East 462 532 24,500 -2,280 Descending Boston Center
01:47PM 42.4775 -74.7231 87° East 452 520 22,000 -2,520 Descending Boston Center
01:48PM 42.4806 -74.5656 88° East 438 504 19,500 -2,040 Descending Boston Center
01:49PM 42.4817 -74.3883 89° East 426 490 18,000 -900 Descending Boston Center
01:50PM 42.4842 -74.2364 89° East 414 476 17,800 -960 Descending Boston Center
01:51PM 42.4861 -74.1011 89° East 402 463 16,100 -1,440 Descending Boston Center
01:52PM 42.4883 -73.9519 89° East 371 427 15,000 -600 Descending Boston Center
01:53PM 42.4900 -73.8253 89° East 362 417 15,000 -300 Level Boston Center
01:54PM 42.4689 -73.6644 100° East 381 438 14,500 -780 Descending Boston Center
01:55PM 42.4242 -73.5425 116° Southeast 397 457 13,500 -1,020 Descending Boston Center
01:55PM 42.3856 -73.4464 119° Southeast 402 463 12,900 -1,020 Descending Boston Center
01:56PM 42.3367 -73.3108 116° Southeast 400 460 11,900 -1,080 Descending Boston Center
01:57PM 42.2411 -73.2506 155° Southeast 381 438 10,800 -1,020 Descending Boston Center
01:58PM 42.1789 -73.2050 152° Southeast 331 381 10,100 -1,140 Descending Boston Center
01:59PM 42.1417 -73.1681 144° Southeast 324 373 9,300 -1,680 Descending Boston Center
02:00PM 42.0753 -73.1114 148° Southeast 297 342 7,600 -1,800 Descending Boston Center
02:01PM 42.0089 -73.0547 148° Southeast 292 336 5,800 -1,620 Descending Boston Center
02:01PM 41.9717 -73.0208 146° Southeast 281 323 5,100 -1,080 Descending Boston Center
02:02PM 41.9053 -72.9644 148° Southeast 264 304 4,100 -1,140 Descending Boston Center
02:03PM 41.8472 -72.9111 146° Southeast 255 293 2,900 -840 Descending Boston Center
02:04PM 41.8264 -72.8692 124° Southeast 211 243 2,600 -300 Descending Boston Center
02:05PM 41.8392 -72.8247 69° East 178 205 2,500 -600 Descending Boston Center
02:06PM 41.8725 -72.7775 47° Northeast 153 176 1,700 -720 Descending Boston Center
02:07PM 41.8978 -72.7442 44° Northeast 148 170 1,100 -660 Descending Boston Center
02:08PM 41.9269 -72.7081 43° Northeast 148 170 400 4,920 Descending Boston Center
02:09PM 41.9522 -72.6578 56° Northeast 148 170 11,000 5,280 Climbing Boston Center
02:10PM 41.9792 -72.6161 49° Northeast 148 170 11,000  Level Boston Center